Time;durP1;ratioP1;P1;durP2;ratioP2;P2;SDS_P1;SDS_P2;PMS_P1;PMS_P2;Temp;Humidity;BMP_temperature;BMP_pressure;BME280_temperature;BME280_humidity;BME280_pressure;Samples;Min_cycle;Max_cycle;Signal;HPM_P1;HPM_P2
2022/07/01 00:01:31;;;;;;;6.28;4.65;;;;;;;;;;4976937;28;20053;-86
2022/07/01 00:03:56;;;;;;;6.32;4.53;;;;;;;;;;4974051;28;20034;-85
2022/07/01 00:06:22;;;;;;;7.20;4.95;;;;;;;;;;4976075;28;20112;-85
2022/07/01 00:08:47;;;;;;;6.85;4.93;;;;;;;;;;4973378;28;20045;-86
2022/07/01 00:11:13;;;;;;;7.60;5.30;;;;;;;;;;4965133;28;20038;-85
2022/07/01 00:13:39;;;;;;;7.25;4.85;;;;;;;;;;4989164;28;20041;-84
2022/07/01 00:16:04;;;;;;;7.80;5.05;;;;;;;;;;4983760;28;20037;-85
2022/07/01 00:18:30;;;;;;;6.00;4.47;;;;;;;;;;4984260;28;20040;-84
2022/07/01 00:20:56;;;;;;;7.15;4.57;;;;;;;;;;4967316;28;20072;-84
2022/07/01 00:23:21;;;;;;;7.55;5.22;;;;;;;;;;4988261;28;20048;-85
2022/07/01 00:25:47;;;;;;;7.22;5.07;;;;;;;;;;5006075;28;20617;-85
2022/07/01 00:28:12;;;;;;;6.43;4.97;;;;;;;;;;4989549;28;20374;-85
2022/07/01 00:30:38;;;;;;;7.85;5.00;;;;;;;;;;4989151;28;20120;-85
2022/07/01 00:33:03;;;;;;;5.88;4.75;;;;;;;;;;5005836;28;20033;-84
2022/07/01 00:35:29;;;;;;;6.82;4.97;;;;;;;;;;4988825;28;20069;-85
2022/07/01 00:37:54;;;;;;;6.70;5.07;;;;;;;;;;4990137;28;20141;-85
2022/07/01 00:40:20;;;;;;;7.28;4.97;;;;;;;;;;4984215;28;20485;-85
2022/07/01 00:42:45;;;;;;;6.65;5.05;;;;;;;;;;4989949;28;20048;-87
2022/07/01 00:45:11;;;;;;;7.22;5.28;;;;;;;;;;5005653;28;20077;-85
2022/07/01 00:47:38;;;;;;;7.07;5.10;;;;;;;;;;4997683;28;20030;-86
2022/07/01 00:50:07;;;;;;;7.88;5.68;;;;;;;;;;4989906;28;20037;-86
2022/07/01 00:52:33;;;;;;;6.32;4.90;;;;;;;;;;4989623;28;20042;-86
2022/07/01 00:54:59;;;;;;;7.32;5.15;;;;;;;;;;5005532;28;20535;-86
2022/07/01 00:57:30;;;;;;;6.88;5.35;;;;;;;;;;5006133;28;20038;-86
2022/07/01 00:59:55;;;;;;;8.13;6.00;;;;;;;;;;4990373;28;20061;-86
2022/07/01 01:02:21;;;;;;;7.32;5.38;;;;;;;;;;4996962;28;20143;-86
2022/07/01 01:04:47;;;;;;;8.18;5.63;;;;;;;;;;5006177;28;20038;-87
2022/07/01 01:07:13;;;;;;;7.60;5.40;;;;;;;;;;4998770;28;20046;-87
2022/07/01 01:09:39;;;;;;;7.50;5.78;;;;;;;;;;4991730;28;20026;-87
2022/07/01 01:12:05;;;;;;;8.20;5.88;;;;;;;;;;4988851;28;20038;-86
2022/07/01 01:14:49;;;;;;;6.93;5.28;;;;;;;;;;4988980;28;20922;-86
2022/07/01 01:17:16;;;;;;;7.45;5.07;;;;;;;;;;5021041;28;20523;-85
2022/07/01 01:19:42;;;;;;;7.55;5.65;;;;;;;;;;4983892;28;20087;-85
2022/07/01 01:22:08;;;;;;;8.30;5.95;;;;;;;;;;4997739;28;20057;-86
2022/07/01 01:24:36;;;;;;;7.47;5.57;;;;;;;;;;4995668;28;20053;-86
2022/07/01 01:27:01;;;;;;;;;;;;;;;;;;5000104;28;20373;-85
2022/07/01 01:29:26;;;;;;;8.38;5.88;;;;;;;;;;4988973;28;19924;-86
2022/07/01 01:31:52;;;;;;;7.35;5.47;;;;;;;;;;4988900;28;20048;-86
2022/07/01 01:34:17;;;;;;;8.15;5.85;;;;;;;;;;5005441;28;20146;-85
2022/07/01 01:36:43;;;;;;;8.38;6.07;;;;;;;;;;4989285;28;20563;-85
2022/07/01 01:39:17;;;;;;;7.60;5.50;;;;;;;;;;4994677;28;20034;-86
2022/07/01 01:41:43;;;;;;;8.35;6.10;;;;;;;;;;5005820;28;20124;-86
2022/07/01 01:44:08;;;;;;;8.13;5.90;;;;;;;;;;4987864;28;20038;-86
2022/07/01 01:46:34;;;;;;;8.68;6.63;;;;;;;;;;5005031;28;20053;-87
2022/07/01 01:49:00;;;;;;;9.40;6.97;;;;;;;;;;5005136;28;20493;-86
2022/07/01 01:51:26;;;;;;;8.10;5.90;;;;;;;;;;4987202;28;20037;-86
2022/07/01 01:53:51;;;;;;;9.48;6.53;;;;;;;;;;5004940;28;20034;-86
2022/07/01 01:56:17;;;;;;;8.35;6.35;;;;;;;;;;5004391;28;20112;-86
2022/07/01 01:58:45;;;;;;;8.85;6.82;;;;;;;;;;4988578;28;20084;-86
2022/07/01 02:01:11;;;;;;;10.50;7.03;;;;;;;;;;5004457;28;20038;-86
2022/07/01 02:03:37;;;;;;;9.13;6.30;;;;;;;;;;4995590;28;20105;-87
2022/07/01 02:06:04;;;;;;;9.57;7.03;;;;;;;;;;4986331;28;20038;-86
2022/07/01 02:08:30;;;;;;;9.03;6.97;;;;;;;;;;4995798;28;20041;-87
2022/07/01 02:10:56;;;;;;;9.95;7.28;;;;;;;;;;5002478;28;20339;-86
2022/07/01 02:13:21;;;;;;;9.85;7.32;;;;;;;;;;5004474;28;20079;-86
2022/07/01 02:16:07;;;;;;;10.60;6.85;;;;;;;;;;5003494;28;20034;-86
2022/07/01 02:18:32;;;;;;;9.02;7.00;;;;;;;;;;4963829;28;20038;-87
2022/07/01 02:20:58;;;;;;;11.45;7.25;;;;;;;;;;4947635;28;20606;-86
2022/07/01 02:23:24;;;;;;;9.73;7.55;;;;;;;;;;4964025;28;20038;-87
2022/07/01 02:25:49;;;;;;;8.90;6.75;;;;;;;;;;4962905;28;20050;-86
2022/07/01 02:28:14;;;;;;;11.10;8.10;;;;;;;;;;4951127;28;20043;-86
2022/07/01 02:30:41;;;;;;;11.07;8.23;;;;;;;;;;4930930;28;20058;-88
2022/07/01 02:33:07;;;;;;;10.23;7.70;;;;;;;;;;4963996;28;20410;-87
2022/07/01 02:35:33;;;;;;;10.43;7.95;;;;;;;;;;4946401;28;20050;-86
2022/07/01 02:37:59;;;;;;;9.48;7.30;;;;;;;;;;4953475;28;20046;-86
2022/07/01 02:40:24;;;;;;;10.73;7.55;;;;;;;;;;4951755;28;20130;-86
2022/07/01 02:42:49;;;;;;;11.68;7.93;;;;;;;;;;4949012;28;20734;-87
2022/07/01 02:45:15;;;;;;;10.65;8.32;;;;;;;;;;4946826;28;20045;-86
2022/07/01 02:47:41;;;;;;;11.45;8.85;;;;;;;;;;4934109;28;20046;-87
2022/07/01 02:50:09;;;;;;;10.02;7.40;;;;;;;;;;4947220;28;20042;-86
2022/07/01 02:52:36;;;;;;;10.60;7.85;;;;;;;;;;4947094;28;20039;-87
2022/07/01 02:55:06;;;;;;;10.77;7.68;;;;;;;;;;4960797;28;20486;-86
2022/07/01 02:57:31;;;;;;;10.00;7.78;;;;;;;;;;4998673;28;20034;-86
2022/07/01 02:59:57;;;;;;;10.60;8.18;;;;;;;;;;4987530;28;20087;-86
2022/07/01 03:02:22;;;;;;;11.75;8.15;;;;;;;;;;4986826;28;20037;-86
2022/07/01 03:04:49;;;;;;;11.40;7.78;;;;;;;;;;4988551;28;20049;-87
2022/07/01 03:07:14;;;;;;;9.88;7.18;;;;;;;;;;5003135;28;20049;-86
2022/07/01 03:09:40;;;;;;;11.55;8.40;;;;;;;;;;5003777;28;20041;-87
2022/07/01 03:12:25;;;;;;;9.95;7.70;;;;;;;;;;5003075;28;20034;-86
2022/07/01 03:14:58;;;;;;;10.60;8.05;;;;;;;;;;5005648;28;20053;-87
2022/07/01 03:17:25;;;;;;;9.77;7.53;;;;;;;;;;5001460;28;20081;-87
2022/07/01 03:19:51;;;;;;;11.25;8.10;;;;;;;;;;5000665;28;20511;-86
2022/07/01 03:22:18;;;;;;;10.52;8.65;;;;;;;;;;5001360;28;20543;-86
2022/07/01 03:24:43;;;;;;;10.80;8.10;;;;;;;;;;4990327;28;20493;-86
2022/07/01 03:27:08;;;;;;;10.25;8.13;;;;;;;;;;5005876;28;20041;-86
2022/07/01 03:29:34;;;;;;;9.88;7.97;;;;;;;;;;4983582;28;20037;-86
2022/07/01 03:31:59;;;;;;;11.82;8.38;;;;;;;;;;4991971;28;20034;-86
2022/07/01 03:34:25;;;;;;;11.48;8.63;;;;;;;;;;5000485;28;20128;-86
2022/07/01 03:36:50;;;;;;;10.23;8.05;;;;;;;;;;4996367;28;20061;-86
2022/07/01 03:39:18;;;;;;;11.27;7.68;;;;;;;;;;4991332;28;20440;-86
2022/07/01 03:41:44;;;;;;;11.43;8.15;;;;;;;;;;4989524;28;20096;-86
2022/07/01 03:44:09;;;;;;;10.15;8.07;;;;;;;;;;4989434;28;20452;-86
2022/07/01 03:46:35;;;;;;;11.38;8.50;;;;;;;;;;5001513;28;20455;-87
2022/07/01 03:49:01;;;;;;;10.85;8.38;;;;;;;;;;4997744;28;20038;-86
2022/07/01 03:51:27;;;;;;;12.38;8.57;;;;;;;;;;5005189;28;20108;-87
2022/07/01 03:56:36;;;;;;;12.95;8.68;;;;;;;;;;5005188;28;20392;-87
2022/07/01 03:59:02;;;;;;;11.52;8.63;;;;;;;;;;4990171;28;20038;-87
2022/07/01 04:01:27;;;;;;;11.75;8.32;;;;;;;;;;4988723;28;20129;-86
2022/07/01 04:03:53;;;;;;;10.27;8.02;;;;;;;;;;5000044;28;20088;-86
2022/07/01 04:06:18;;;;;;;11.88;8.13;;;;;;;;;;4992264;28;20069;-86
2022/07/01 04:08:43;;;;;;;13.50;9.13;;;;;;;;;;4991848;28;20149;-86
2022/07/01 04:11:09;;;;;;;12.30;9.32;;;;;;;;;;4993029;28;20036;-86
2022/07/01 04:13:37;;;;;;;13.13;8.85;;;;;;;;;;4989510;28;20452;-86
2022/07/01 04:16:03;;;;;;;12.48;8.98;;;;;;;;;;5022183;28;20516;-86
2022/07/01 04:18:29;;;;;;;11.23;8.23;;;;;;;;;;4999928;28;20041;-86
2022/07/01 04:23:38;;;;;;;11.90;9.43;;;;;;;;;;5019416;28;20041;-86
2022/07/01 04:26:04;;;;;;;12.13;9.07;;;;;;;;;;4989055;28;20038;-87
2022/07/01 04:28:29;;;;;;;11.82;8.70;;;;;;;;;;5006202;28;20038;-87
2022/07/01 04:30:54;;;;;;;12.50;9.10;;;;;;;;;;4988726;28;20038;-90
2022/07/01 04:33:20;;;;;;;11.98;9.20;;;;;;;;;;4996082;28;20116;-89
2022/07/01 04:35:45;;;;;;;11.25;8.77;;;;;;;;;;4989321;28;20076;-87
2022/07/01 04:38:10;;;;;;;12.93;9.73;;;;;;;;;;5001131;28;20052;-87
2022/07/01 04:40:36;;;;;;;13.82;9.05;;;;;;;;;;4988699;28;20037;-86
2022/07/01 04:43:01;;;;;;;11.20;8.90;;;;;;;;;;4989458;28;20046;-87
2022/07/01 04:45:27;;;;;;;11.88;8.80;;;;;;;;;;4988916;28;20053;-87
2022/07/01 04:47:52;;;;;;;11.48;8.68;;;;;;;;;;4990634;28;20100;-88
2022/07/01 04:50:17;;;;;;;12.10;8.95;;;;;;;;;;4983955;28;20558;-87
2022/07/01 04:52:43;;;;;;;13.88;9.90;;;;;;;;;;4991372;28;20432;-88
2022/07/01 04:55:08;;;;;;;13.30;8.77;;;;;;;;;;5005155;28;20038;-87
2022/07/01 04:57:34;;;;;;;11.60;8.95;;;;;;;;;;4993268;28;20060;-88
2022/07/01 04:59:59;;;;;;;12.65;9.57;;;;;;;;;;4978934;28;20038;-88
2022/07/01 05:02:24;;;;;;;10.88;8.20;;;;;;;;;;4994800;28;20124;-89
2022/07/01 05:04:50;;;;;;;10.90;8.60;;;;;;;;;;5004551;28;20033;-86
2022/07/01 05:07:31;;;;;;;12.10;8.55;;;;;;;;;;4987812;28;21495;-88
2022/07/01 05:09:58;;;;;;;11.30;8.68;;;;;;;;;;5007258;28;20125;-83
2022/07/01 05:12:24;;;;;;;12.63;9.00;;;;;;;;;;4996123;28;20585;-86
2022/07/01 05:14:49;;;;;;;9.77;8.20;;;;;;;;;;5005346;28;20049;-88
2022/07/01 05:17:15;;;;;;;10.93;8.15;;;;;;;;;;4998111;28;20038;-87
2022/07/01 05:22:44;;;;;;;10.10;7.80;;;;;;;;;;4945752;28;20046;-88
2022/07/01 05:25:09;;;;;;;11.15;8.48;;;;;;;;;;4928983;28;20055;-87
2022/07/01 05:27:35;;;;;;;10.07;7.97;;;;;;;;;;4932035;28;20130;-89
2022/07/01 05:30:00;;;;;;;10.98;8.18;;;;;;;;;;4930350;29;20055;-88
2022/07/01 05:32:25;;;;;;;10.50;7.88;;;;;;;;;;4931571;28;20047;-86
2022/07/01 05:34:53;;;;;;;9.38;7.28;;;;;;;;;;4931770;28;20040;-87
2022/07/01 05:37:20;;;;;;;15.75;9.10;;;;;;;;;;4915690;28;20039;-87
2022/07/01 05:39:46;;;;;;;;;;;;;;;;;;4931070;28;20208;-86
2022/07/01 05:42:11;;;;;;;11.57;8.73;;;;;;;;;;4927579;28;19922;-86
2022/07/01 05:44:36;;;;;;;11.90;8.98;;;;;;;;;;4947771;28;20043;-87
2022/07/01 05:47:04;;;;;;;10.05;8.05;;;;;;;;;;4948283;28;20827;-86
2022/07/01 05:49:30;;;;;;;11.82;8.70;;;;;;;;;;4916498;28;20116;-86
2022/07/01 05:51:55;;;;;;;11.35;8.73;;;;;;;;;;4931120;28;20535;-86
2022/07/01 05:54:21;;;;;;;11.98;8.68;;;;;;;;;;4929986;28;20090;-86
2022/07/01 05:56:47;;;;;;;11.43;8.85;;;;;;;;;;4929199;28;20613;-87
2022/07/01 05:59:14;;;;;;;12.00;9.05;;;;;;;;;;4941419;28;20107;-87
2022/07/01 06:01:39;;;;;;;10.38;8.27;;;;;;;;;;4987770;28;20041;-86
2022/07/01 06:04:04;;;;;;;11.55;8.25;;;;;;;;;;4988430;28;20091;-87
2022/07/01 06:06:30;;;;;;;11.07;8.45;;;;;;;;;;4978713;28;20117;-88
2022/07/01 06:08:58;;;;;;;10.48;8.57;;;;;;;;;;4981032;28;20045;-86
2022/07/01 06:11:23;;;;;;;12.15;8.55;;;;;;;;;;5004911;28;20034;-87
2022/07/01 06:13:49;;;;;;;10.77;8.68;;;;;;;;;;4990617;28;20096;-88
2022/07/01 06:16:14;;;;;;;10.73;8.38;;;;;;;;;;4987579;28;20169;-89
2022/07/01 06:18:39;;;;;;;12.55;8.68;;;;;;;;;;4986805;28;20072;-88
2022/07/01 06:21:05;;;;;;;11.40;9.02;;;;;;;;;;4988352;28;20568;-88
2022/07/01 06:23:30;;;;;;;12.75;8.52;;;;;;;;;;4978034;28;20528;-89
2022/07/01 06:25:56;;;;;;;11.07;8.23;;;;;;;;;;4989068;28;20045;-86
2022/07/01 06:28:29;;;;;;;13.13;8.43;;;;;;;;;;4989014;28;20056;-88
2022/07/01 06:30:56;;;;;;;11.48;7.97;;;;;;;;;;4992862;28;20089;-87
2022/07/01 06:33:22;;;;;;;12.80;9.48;;;;;;;;;;4992834;28;20060;-86
2022/07/01 06:35:47;;;;;;;10.40;8.32;;;;;;;;;;4979944;28;20037;-85
2022/07/01 06:38:12;;;;;;;12.35;8.90;;;;;;;;;;4987743;28;20044;-86
2022/07/01 06:40:38;;;;;;;11.95;7.95;;;;;;;;;;5003438;28;20460;-86
2022/07/01 06:43:03;;;;;;;10.60;8.15;;;;;;;;;;4993384;28;20554;-86
2022/07/01 06:45:29;;;;;;;10.85;8.13;;;;;;;;;;5003924;28;20038;-86
2022/07/01 06:47:54;;;;;;;10.15;8.07;;;;;;;;;;4989216;28;20104;-87
2022/07/01 06:50:22;;;;;;;10.57;8.57;;;;;;;;;;4990891;28;20034;-87
2022/07/01 06:52:48;;;;;;;10.43;8.15;;;;;;;;;;4988037;28;20403;-86
2022/07/01 06:55:13;;;;;;;10.35;8.13;;;;;;;;;;4998873;28;20327;-89
2022/07/01 06:57:38;;;;;;;10.38;7.60;;;;;;;;;;4992220;28;20080;-88
2022/07/01 07:00:07;;;;;;;9.98;8.50;;;;;;;;;;4997826;28;20045;-86
2022/07/01 07:02:32;;;;;;;9.77;7.78;;;;;;;;;;5007644;28;20117;-87
2022/07/01 07:04:58;;;;;;;10.00;7.72;;;;;;;;;;4991870;28;20109;-87
2022/07/01 07:07:24;;;;;;;9.55;7.57;;;;;;;;;;4991361;28;20416;-87
2022/07/01 07:09:50;;;;;;;11.35;7.20;;;;;;;;;;4991646;28;20922;-87
2022/07/01 07:12:15;;;;;;;8.45;6.75;;;;;;;;;;4982868;28;20040;-88
2022/07/01 07:14:40;;;;;;;8.93;7.28;;;;;;;;;;4991595;28;20129;-86
2022/07/01 07:17:06;;;;;;;8.65;6.85;;;;;;;;;;4993724;28;20038;-86
2022/07/01 07:19:31;;;;;;;9.85;6.80;;;;;;;;;;4991683;28;20514;-87
2022/07/01 07:21:56;;;;;;;7.50;5.90;;;;;;;;;;4999135;28;20072;-86
2022/07/01 07:24:22;;;;;;;7.40;5.88;;;;;;;;;;5008261;28;20034;-87
2022/07/01 07:26:47;;;;;;;7.38;5.70;;;;;;;;;;4994979;28;20061;-86
2022/07/01 07:29:13;;;;;;;6.88;5.22;;;;;;;;;;4993946;28;20053;-86
2022/07/01 07:31:39;;;;;;;7.53;5.50;;;;;;;;;;4997824;28;20480;-87
2022/07/01 07:34:04;;;;;;;9.82;5.95;;;;;;;;;;4984881;28;20125;-86
2022/07/01 07:36:31;;;;;;;7.63;5.03;;;;;;;;;;4990002;28;20061;-86
2022/07/01 07:38:57;;;;;;;6.82;5.20;;;;;;;;;;4982902;28;20600;-84
2022/07/01 07:41:22;;;;;;;8.27;5.10;;;;;;;;;;4990422;28;20129;-87
2022/07/01 07:43:48;;;;;;;5.85;4.28;;;;;;;;;;5007221;28;20437;-89
2022/07/01 07:46:14;;;;;;;6.95;4.50;;;;;;;;;;5007069;28;20045;-87
2022/07/01 07:48:41;;;;;;;6.43;4.78;;;;;;;;;;5007042;28;20030;-86
2022/07/01 07:51:06;;;;;;;7.07;4.30;;;;;;;;;;5007717;28;20552;-87
2022/07/01 07:53:32;;;;;;;6.45;4.90;;;;;;;;;;4990954;28;20030;-87
2022/07/01 07:55:57;;;;;;;6.97;5.22;;;;;;;;;;4997854;28;20038;-84
2022/07/01 07:58:23;;;;;;;6.00;4.53;;;;;;;;;;4991753;28;20049;-84
2022/07/01 08:00:48;;;;;;;6.68;4.55;;;;;;;;;;4990220;28;20049;-85
2022/07/01 08:03:14;;;;;;;7.28;4.97;;;;;;;;;;4993729;28;20509;-87
2022/07/01 08:05:39;;;;;;;8.05;4.60;;;;;;;;;;4982509;28;20501;-86
2022/07/01 08:08:05;;;;;;;7.60;5.15;;;;;;;;;;5000028;28;20548;-87
2022/07/01 08:10:30;;;;;;;7.38;5.00;;;;;;;;;;4989945;28;20301;-85
2022/07/01 08:12:57;;;;;;;7.20;5.68;;;;;;;;;;4992642;28;20410;-84
2022/07/01 08:15:23;;;;;;;6.32;4.90;;;;;;;;;;4990444;28;20109;-85
2022/07/01 08:17:48;;;;;;;6.47;5.00;;;;;;;;;;5007245;28;20041;-84
2022/07/01 08:20:14;;;;;;;6.22;4.80;;;;;;;;;;4989636;28;20030;-85
2022/07/01 08:22:39;;;;;;;6.30;4.90;;;;;;;;;;4990382;28;20117;-85
2022/07/01 08:25:05;;;;;;;6.38;4.65;;;;;;;;;;4974458;28;20046;-85
2022/07/01 08:27:30;;;;;;;7.65;4.88;;;;;;;;;;4974163;28;20030;-85
2022/07/01 08:29:56;;;;;;;5.88;4.30;;;;;;;;;;4974546;28;20038;-85
2022/07/01 08:32:25;;;;;;;6.72;4.40;;;;;;;;;;4973933;28;20129;-84
2022/07/01 08:34:51;;;;;;;4.32;3.33;;;;;;;;;;4990072;28;20045;-85
2022/07/01 08:37:16;;;;;;;5.70;3.25;;;;;;;;;;4989781;28;20049;-84
2022/07/01 08:39:41;;;;;;;4.05;3.00;;;;;;;;;;4973978;28;20535;-85
2022/07/01 08:42:07;;;;;;;4.10;2.80;;;;;;;;;;4973378;28;20517;-82
2022/07/01 08:44:32;;;;;;;4.78;2.80;;;;;;;;;;4973369;28;20041;-86
2022/07/01 08:46:57;;;;;;;5.05;2.65;;;;;;;;;;4986678;28;20046;-85
2022/07/01 08:49:23;;;;;;;9.38;3.22;;;;;;;;;;4974442;28;20489;-83
2022/07/01 08:51:48;;;;;;;4.93;3.03;;;;;;;;;;4973162;28;20037;-82
2022/07/01 08:54:14;;;;;;;3.90;2.88;;;;;;;;;;4990035;28;20050;-83
2022/07/01 08:56:42;;;;;;;5.00;2.67;;;;;;;;;;4974210;28;20140;-83
2022/07/01 08:59:12;;;;;;;4.80;3.05;;;;;;;;;;4976381;28;20049;-85
2022/07/01 09:01:38;;;;;;;4.57;3.15;;;;;;;;;;4984758;28;20038;-83
2022/07/01 09:04:20;;;;;;;4.43;3.10;;;;;;;;;;4983526;28;20037;-83
2022/07/01 09:06:46;;;;;;;4.57;2.08;;;;;;;;;;4989472;28;20033;-83
2022/07/01 09:09:14;;;;;;;3.05;1.70;;;;;;;;;;4981937;28;20452;-82
2022/07/01 09:11:53;;;;;;;;;;;;;;;;;;4976540;28;20034;-81
2022/07/01 09:14:21;;;;;;;2.60;1.30;;;;;;;;;;4973234;28;19918;-82
2022/07/01 09:16:51;;;;;;;3.28;1.50;;;;;;;;;;4981306;28;20750;-83
2022/07/01 09:19:18;;;;;;;2.25;1.15;;;;;;;;;;4972919;28;21118;-84
2022/07/01 09:22:00;;;;;;;2.05;0.98;;;;;;;;;;4972715;28;20030;-84
2022/07/01 09:24:41;;;;;;;1.83;0.90;;;;;;;;;;5000818;28;20121;-83
2022/07/01 09:27:13;;;;;;;3.20;0.93;;;;;;;;;;5003319;28;20536;-83
2022/07/01 09:29:44;;;;;;;3.10;1.10;;;;;;;;;;4994915;28;20038;-84
2022/07/01 09:32:13;;;;;;;1.35;0.77;;;;;;;;;;5004851;28;20052;-82
2022/07/01 09:34:43;;;;;;;1.80;0.90;;;;;;;;;;4996403;28;20184;-83
2022/07/01 09:37:12;;;;;;;1.10;0.70;;;;;;;;;;5004945;28;20107;-85
2022/07/01 09:39:44;;;;;;;1.70;0.80;;;;;;;;;;4990775;28;20040;-83
2022/07/01 09:42:10;;;;;;;1.50;1.00;;;;;;;;;;4988420;28;20042;-82
2022/07/01 09:44:35;;;;;;;2.38;0.90;;;;;;;;;;4988593;28;20605;-83
2022/07/01 09:47:02;;;;;;;1.20;0.60;;;;;;;;;;4988729;28;20045;-81
2022/07/01 09:49:27;;;;;;;1.80;0.90;;;;;;;;;;4989358;28;20038;-82
2022/07/01 09:51:53;;;;;;;2.20;0.82;;;;;;;;;;4987877;28;20037;-84
2022/07/01 09:54:18;;;;;;;1.45;0.70;;;;;;;;;;4982972;28;21209;-83
2022/07/01 09:56:44;;;;;;;1.27;0.70;;;;;;;;;;5004661;28;20033;-82
2022/07/01 09:59:10;;;;;;;2.88;0.93;;;;;;;;;;5021110;28;20472;-82
2022/07/01 10:01:36;;;;;;;1.63;0.85;;;;;;;;;;4994321;28;20506;-82
2022/07/01 10:04:02;;;;;;;1.98;0.77;;;;;;;;;;4993108;28;20069;-82
2022/07/01 10:06:43;;;;;;;2.33;0.80;;;;;;;;;;4987773;28;20039;-81
2022/07/01 10:09:32;;;;;;;1.60;0.80;;;;;;;;;;4988014;28;20469;-82
2022/07/01 10:12:28;;;;;;;1.10;0.60;;;;;;;;;;5003382;28;20117;-82
2022/07/01 10:14:54;;;;;;;2.55;0.93;;;;;;;;;;5007929;28;20405;-81
2022/07/01 10:17:27;;;;;;;2.33;0.98;;;;;;;;;;4992448;28;20030;-82
2022/07/01 10:19:57;;;;;;;2.22;0.80;;;;;;;;;;4987819;28;20379;-82
2022/07/01 10:22:29;;;;;;;1.63;0.60;;;;;;;;;;4980781;28;20068;-81
2022/07/01 10:24:56;;;;;;;1.27;0.70;;;;;;;;;;4942693;28;20129;-82
2022/07/01 10:27:23;;;;;;;1.63;0.70;;;;;;;;;;4950827;28;20069;-82
2022/07/01 10:29:49;;;;;;;1.40;0.60;;;;;;;;;;4949878;28;20089;-82
2022/07/01 10:32:20;;;;;;;1.73;0.50;;;;;;;;;;4960918;28;20525;-83
2022/07/01 10:34:45;;;;;;;0.82;0.45;;;;;;;;;;4955530;28;20038;-82
2022/07/01 10:37:11;;;;;;;1.42;0.50;;;;;;;;;;4943726;28;20057;-82
2022/07/01 10:40:00;;;;;;;0.63;0.32;;;;;;;;;;4958224;28;20104;-80
2022/07/01 10:42:28;;;;;;;2.08;0.40;;;;;;;;;;4961259;28;20125;-81
2022/07/01 10:45:11;;;;;;;1.15;0.40;;;;;;;;;;4958689;28;20043;-83
2022/07/01 10:47:38;;;;;;;0.38;0.15;;;;;;;;;;4967412;28;20035;-84
2022/07/01 10:50:11;;;;;;;;;;;;;;;;;;4967401;28;20039;-82
2022/07/01 10:52:37;;;;;;;0.30;0.20;;;;;;;;;;4945327;28;19924;-83
2022/07/01 10:55:09;;;;;;;0.32;0.20;;;;;;;;;;4960932;28;20039;-82
2022/07/01 10:57:37;;;;;;;0.82;0.30;;;;;;;;;;4967034;28;20042;-83
2022/07/01 11:00:02;;;;;;;0.40;0.30;;;;;;;;;;4956589;28;20390;-83
2022/07/01 11:02:30;;;;;;;1.77;0.30;;;;;;;;;;4955110;28;20039;-81
2022/07/01 11:05:05;;;;;;;2.97;0.60;;;;;;;;;;4974309;28;20065;-82
2022/07/01 11:07:34;;;;;;;0.73;0.30;;;;;;;;;;4960292;28;20045;-84
2022/07/01 11:10:01;;;;;;;0.75;0.30;;;;;;;;;;4943309;28;20063;-83
2022/07/01 11:12:28;;;;;;;1.00;0.30;;;;;;;;;;4958149;28;20437;-84
2022/07/01 11:14:55;;;;;;;1.05;0.50;;;;;;;;;;4963328;28;20054;-82
2022/07/01 11:17:21;;;;;;;1.00;0.40;;;;;;;;;;4965927;28;20041;-84
2022/07/01 11:19:51;;;;;;;1.35;0.50;;;;;;;;;;4944607;28;20154;-83
2022/07/01 11:22:28;;;;;;;0.98;0.47;;;;;;;;;;4961808;28;20437;-83
2022/07/01 11:24:54;;;;;;;1.35;0.30;;;;;;;;;;4953015;28;20104;-81
2022/07/01 11:27:21;;;;;;;0.93;0.50;;;;;;;;;;4949143;28;20081;-83
2022/07/01 11:29:51;;;;;;;5.82;1.20;;;;;;;;;;4960210;28;20042;-88
2022/07/01 11:32:27;;;;;;;3.38;0.95;;;;;;;;;;4955427;28;20042;-85
2022/07/01 11:34:53;;;;;;;2.53;0.70;;;;;;;;;;4970542;28;20161;-86
2022/07/01 11:40:13;;;;;;;2.13;0.70;;;;;;;;;;4956548;28;20568;-86
2022/07/01 11:42:39;;;;;;;2.20;0.82;;;;;;;;;;4961721;28;20039;-87
2022/07/01 11:45:05;;;;;;;1.90;0.80;;;;;;;;;;4966377;28;20054;-85
2022/07/01 11:47:31;;;;;;;1.77;0.80;;;;;;;;;;4954566;28;20054;-86
2022/07/01 11:49:57;;;;;;;1.88;0.90;;;;;;;;;;4954459;28;20068;-89
2022/07/01 11:52:24;;;;;;;2.03;0.80;;;;;;;;;;4966381;28;20489;-88
2022/07/01 11:54:53;;;;;;;2.17;0.82;;;;;;;;;;4969885;28;20113;-88
2022/07/01 11:57:24;;;;;;;2.03;0.82;;;;;;;;;;4964568;28;20042;-88
2022/07/01 11:59:51;;;;;;;2.17;1.00;;;;;;;;;;4949841;28;20136;-86
2022/07/01 12:02:18;;;;;;;1.73;0.88;;;;;;;;;;4972421;28;20073;-86
2022/07/01 12:04:44;;;;;;;3.22;1.23;;;;;;;;;;4955447;28;20037;-87
2022/07/01 12:07:15;;;;;;;2.00;1.10;;;;;;;;;;4954745;28;20068;-87
2022/07/01 12:09:40;;;;;;;2.80;1.10;;;;;;;;;;4960887;28;20033;-87
2022/07/01 12:12:06;;;;;;;2.58;1.27;;;;;;;;;;4971311;28;20031;-87
2022/07/01 12:14:34;;;;;;;2.35;1.15;;;;;;;;;;4955122;28;20521;-89
2022/07/01 12:17:08;;;;;;;3.78;1.58;;;;;;;;;;4954900;28;20031;-85
2022/07/01 12:19:41;;;;;;;2.55;1.27;;;;;;;;;;4962936;28;20034;-88
2022/07/01 12:22:11;;;;;;;2.28;1.38;;;;;;;;;;4961423;28;20453;-89
2022/07/01 12:24:37;;;;;;;2.50;1.33;;;;;;;;;;4955536;28;20092;-87
2022/07/01 12:27:05;;;;;;;2.63;1.50;;;;;;;;;;4962173;28;20513;-86
2022/07/01 12:29:53;;;;;;;2.40;1.30;;;;;;;;;;4956705;28;20031;-87
2022/07/01 12:32:28;;;;;;;4.47;1.55;;;;;;;;;;4964600;28;20043;-87
2022/07/01 12:34:59;;;;;;;3.20;1.60;;;;;;;;;;4954299;28;20581;-87
2022/07/01 12:37:31;;;;;;;2.60;1.40;;;;;;;;;;4954719;28;20041;-85
2022/07/01 12:40:08;;;;;;;2.53;1.52;;;;;;;;;;4987589;28;20599;-86
2022/07/01 12:42:42;;;;;;;3.08;1.73;;;;;;;;;;4948357;28;20113;-85
2022/07/01 12:45:12;;;;;;;4.22;1.77;;;;;;;;;;4985424;28;20393;-85
2022/07/01 12:47:39;;;;;;;3.00;1.52;;;;;;;;;;4954401;28;20038;-86
2022/07/01 12:50:17;;;;;;;2.60;1.55;;;;;;;;;;4969894;28;20041;-84
2022/07/01 12:52:59;;;;;;;4.03;1.70;;;;;;;;;;4987118;28;20030;-87
2022/07/01 12:55:25;;;;;;;3.42;1.88;;;;;;;;;;4968752;28;20046;-86
2022/07/01 12:57:52;;;;;;;3.13;1.83;;;;;;;;;;4969814;28;20046;-87
2022/07/01 13:00:19;;;;;;;3.17;1.92;;;;;;;;;;4953507;28;20042;-84
2022/07/01 13:02:44;;;;;;;3.65;1.92;;;;;;;;;;4959622;28;20066;-87
2022/07/01 13:05:13;;;;;;;2.88;1.60;;;;;;;;;;4952698;28;20109;-85
2022/07/01 13:07:39;;;;;;;3.38;1.90;;;;;;;;;;4955807;28;20532;-87
2022/07/01 13:10:05;;;;;;;3.10;1.92;;;;;;;;;;4950530;28;20065;-85
2022/07/01 13:12:31;;;;;;;5.35;1.80;;;;;;;;;;4953369;28;20096;-88
2022/07/01 13:14:57;;;;;;;3.53;1.80;;;;;;;;;;4954829;28;20038;-87
2022/07/01 13:17:23;;;;;;;4.28;1.88;;;;;;;;;;4953586;28;20423;-86
2022/07/01 13:19:49;;;;;;;3.17;1.88;;;;;;;;;;4955170;28;20409;-86
2022/07/01 13:22:14;;;;;;;3.08;1.92;;;;;;;;;;4969048;28;20092;-87
2022/07/01 13:24:40;;;;;;;3.25;1.77;;;;;;;;;;4990376;28;20072;-87
2022/07/01 13:27:05;;;;;;;3.65;1.80;;;;;;;;;;4988776;28;20034;-86
2022/07/01 13:29:31;;;;;;;3.88;1.95;;;;;;;;;;5005245;28;20125;-87
2022/07/01 13:31:56;;;;;;;3.50;1.70;;;;;;;;;;4998419;28;20068;-87
2022/07/01 13:34:21;;;;;;;4.25;2.05;;;;;;;;;;4985283;28;20037;-87
2022/07/01 13:36:47;;;;;;;3.47;1.98;;;;;;;;;;5004968;28;20099;-86
2022/07/01 13:39:12;;;;;;;3.53;2.10;;;;;;;;;;4990485;28;20121;-86
2022/07/01 13:41:37;;;;;;;3.80;2.03;;;;;;;;;;4988213;28;20036;-86
2022/07/01 13:44:03;;;;;;;3.10;1.90;;;;;;;;;;4989275;28;20030;-85
2022/07/01 13:46:28;;;;;;;4.30;2.10;;;;;;;;;;4988380;28;20542;-86
2022/07/01 13:48:54;;;;;;;3.58;1.98;;;;;;;;;;4994307;28;20029;-87
2022/07/01 13:51:19;;;;;;;3.60;2.03;;;;;;;;;;4990914;28;20118;-87
2022/07/01 13:53:44;;;;;;;2.90;1.70;;;;;;;;;;5005032;28;20044;-87
2022/07/01 13:56:10;;;;;;;3.25;1.90;;;;;;;;;;4988122;28;20366;-88
2022/07/01 13:58:35;;;;;;;4.57;2.40;;;;;;;;;;5005309;28;20137;-84
2022/07/01 14:01:00;;;;;;;3.42;2.10;;;;;;;;;;4980430;28;20034;-86
2022/07/01 14:03:26;;;;;;;4.05;2.20;;;;;;;;;;4986225;28;20038;-88
2022/07/01 14:05:51;;;;;;;3.92;2.10;;;;;;;;;;4988013;28;20084;-88
2022/07/01 14:08:17;;;;;;;4.20;2.35;;;;;;;;;;5005562;28;20038;-87
2022/07/01 14:10:43;;;;;;;6.35;2.53;;;;;;;;;;4990820;28;20036;-85
2022/07/01 14:13:09;;;;;;;3.67;2.15;;;;;;;;;;4989085;28;20425;-87
2022/07/01 14:15:35;;;;;;;3.88;2.33;;;;;;;;;;4987713;28;20037;-87
2022/07/01 14:18:01;;;;;;;3.58;2.17;;;;;;;;;;4988351;28;20041;-87
2022/07/01 14:20:27;;;;;;;4.78;2.63;;;;;;;;;;4980127;28;20034;-88
2022/07/01 14:22:53;;;;;;;4.13;2.08;;;;;;;;;;4989100;28;20096;-88
2022/07/01 14:25:19;;;;;;;4.25;2.38;;;;;;;;;;4990921;28;20519;-87
2022/07/01 14:27:45;;;;;;;3.75;2.30;;;;;;;;;;4988845;28;20129;-87
2022/07/01 14:30:11;;;;;;;5.22;2.22;;;;;;;;;;4988078;28;20161;-86
2022/07/01 14:32:38;;;;;;;4.28;2.05;;;;;;;;;;4988272;28;20060;-86
2022/07/01 14:35:04;;;;;;;4.07;2.40;;;;;;;;;;4990599;28;20396;-86
2022/07/01 14:37:30;;;;;;;5.40;2.13;;;;;;;;;;4986833;28;20042;-87
2022/07/01 14:39:58;;;;;;;4.10;2.30;;;;;;;;;;4989190;28;20038;-88
2022/07/01 14:42:25;;;;;;;3.40;2.35;;;;;;;;;;4997495;28;20068;-86
2022/07/01 14:44:50;;;;;;;4.60;2.55;;;;;;;;;;5005138;28;20034;-87
2022/07/01 14:47:16;;;;;;;3.67;2.17;;;;;;;;;;4988807;28;20378;-88
2022/07/01 14:49:44;;;;;;;3.63;2.00;;;;;;;;;;4981929;28;20038;-88
2022/07/01 14:52:10;;;;;;;4.10;2.33;;;;;;;;;;4996259;28;20034;-88